Time;durP1;ratioP1;P1;durP2;ratioP2;P2;SDS_P1;SDS_P2;PMS_P1;PMS_P2;Temp;Humidity;BMP_temperature;BMP_pressure;BME280_temperature;BME280_humidity;BME280_pressure;Samples;Min_cycle;Max_cycle;Signal;HPM_P1;HPM_P2
2021/07/15 00:00:22;;;;;;;;;;;;;;;;;;2143468;66;1967;-66
2021/07/15 00:02:47;;;;;;;;;;;;;;;;;;2145400;66;1557;-65
2021/07/15 00:05:14;;;;;;;;;;;;;;;;;;2146813;66;1393;-68
2021/07/15 00:07:39;;;;;;;;;;;;;;;;;;2145403;66;1267;-66
2021/07/15 00:10:07;;;;;;;;;;;;;;;;;;2145770;66;1233;-67
2021/07/15 00:12:33;;;;;;;;;;;;;;;;;;2145677;59;1282;-66
2021/07/15 00:15:01;;;;;;;;;;;;;;;;;;2141576;59;2220;-66
2021/07/15 00:17:26;;;;;;;;;;;;;;;;;;2145329;66;1195;-67
2021/07/15 00:19:51;;;;;;;;;;;;;;;;;;2145575;66;1925;-67
2021/07/15 00:22:16;;;;;;;;;;;;;;;;;;2146063;58;1353;-67
2021/07/15 00:24:41;;;;;;;;;;;;;;;;;;2146221;66;1204;-63
2021/07/15 00:27:07;;;;;;;;;;;;;;;;;;2146565;66;1231;-67
2021/07/15 00:29:32;;;;;;;;;;;;;;;;;;2146426;66;1214;-65
2021/07/15 00:31:57;;;;;;;;;;;;;;;;;;2146238;66;1191;-66
2021/07/15 00:34:22;;;;;;;;;;;;;;;;;;2147371;66;1190;-66
2021/07/15 00:36:47;;;;;;;;;;;;;;;;;;2145742;66;1170;-67
2021/07/15 00:39:12;;;;;;;;;;;;;;;;;;2145263;66;1921;-67
2021/07/15 00:41:38;;;;;;;;;;;;;;;;;;2146113;66;1199;-68
2021/07/15 00:44:03;;;;;;;;;;;;;;;;;;2144766;66;1176;-67
2021/07/15 00:46:28;;;;;;;;;;;;;;;;;;2146339;66;1315;-68
2021/07/15 00:48:53;;;;;;;;;;;;;;;;;;2144757;59;1287;-67
2021/07/15 00:51:20;;;;;;;;;;;;;;;;;;2145220;66;1220;-64
2021/07/15 00:53:45;;;;;;;;;;;;;;;;;;2145021;66;1235;-67
2021/07/15 00:56:11;;;;;;;;;;;;;;;;;;2146178;58;1240;-67
2021/07/15 00:58:36;;;;;;;;;;;;;;;;;;2144767;66;1982;-66
2021/07/15 01:01:03;;;;;;;;;;;;;;;;;;2145342;66;1317;-67
2021/07/15 01:03:28;;;;;;;;;;;;;;;;;;2145353;66;1147;-67
2021/07/15 01:05:54;;;;;;;;;;;;;;;;;;2145661;66;1204;-65
2021/07/15 01:08:20;;;;;;;;;;;;;;;;;;2145685;66;1218;-66
2021/07/15 01:10:51;;;;;;;;;;;;;;;;;;2146000;66;1228;-66
2021/07/15 01:13:31;;;;;;;;;;;;;;;;;;2146120;66;1540;-68
2021/07/15 01:16:15;;;;;;;;;;;;;;;;;;2145081;59;1262;-68
2021/07/15 01:18:50;;;;;;;;;;;;;;;;;;2145475;66;1919;-66
2021/07/15 01:21:34;;;;;;;;;;;;;;;;;;2146232;66;1226;-66
2021/07/15 01:24:05;;;;;;;;;;;;;;;;;;2145188;66;1519;-62
2021/07/15 01:26:47;;;;;;;;;;;;;;;;;;2146473;59;1201;-66
2021/07/15 01:29:17;;;;;;;;;;;;;;;;;;2144422;66;1223;-66
2021/07/15 01:31:44;;;;;;;;;;;;;;;;;;2145983;66;1155;-68
2021/07/15 01:34:11;;;;;;;;;;;;;;;;;;2144202;59;1558;-67
2021/07/15 01:36:37;;;;;;;;;;;;;;;;;;2143538;66;1637;-66
2021/07/15 01:39:07;;;;;;;;;;;;;;;;;;2144726;66;1962;-68
2021/07/15 01:41:36;;;;;;;;;;;;;;;;;;2145812;66;1183;-66
2021/07/15 01:44:06;;;;;;;;;;;;;;;;;;2145810;66;1238;-67
2021/07/15 01:46:32;;;;;;;;;;;;;;;;;;2146024;66;1214;-67
2021/07/15 01:48:57;;;;;;;;;;;;;;;;;;2144322;59;1320;-68
2021/07/15 01:51:22;;;;;;;;;;;;;;;;;;2144901;66;1374;-66
2021/07/15 01:53:48;;;;;;;;;;;;;;;;;;2145927;66;1179;-65
2021/07/15 01:56:16;;;;;;;;;;;;;;;;;;2144624;58;1181;-67
2021/07/15 01:58:43;;;;;;;;;;;;;;;;;;2147800;53;1994;-69
2021/07/15 02:01:09;;;;;;;;;;;;;;;;;;2140000;67;1187;-70
2021/07/15 02:03:37;;;;;;;;;;;;;;;;;;2140476;59;1367;-70
2021/07/15 02:06:03;;;;;;;;;;;;;;;;;;2140179;59;1198;-70
2021/07/15 02:08:29;;;;;;;;;;;;;;;;;;2140533;67;1166;-70
2021/07/15 02:10:55;;;;;;;;;;;;;;;;;;2140282;67;1155;-69
2021/07/15 02:13:20;;;;;;;;;;;;;;;;;;2138937;59;1509;-69
2021/07/15 02:15:46;;;;;;;;;;;;;;;;;;2140524;59;1200;-68
2021/07/15 02:18:13;;;;;;;;;;;;;;;;;;2140376;67;1227;-69
2021/07/15 02:20:38;;;;;;;;;;;;;;;;;;2140548;67;1939;-69
2021/07/15 02:23:05;;;;;;;;;;;;;;;;;;2139457;59;1451;-68
2021/07/15 02:25:30;;;;;;;;;;;;;;;;;;2139273;67;1173;-69
2021/07/15 02:27:56;;;;;;;;;;;;;;;;;;2140737;67;1188;-69
2021/07/15 02:30:22;;;;;;;;;;;;;;;;;;2141138;67;1082;-69
2021/07/15 02:32:55;;;;;;;;;;;;;;;;;;2140936;59;1116;-69
2021/07/15 02:35:20;;;;;;;;;;;;;;;;;;2140327;67;1035;-67
2021/07/15 02:37:47;;;;;;;;;;;;;;;;;;2141305;67;1253;-70
2021/07/15 02:40:14;;;;;;;;;;;;;;;;;;2140848;67;1973;-68
2021/07/15 02:42:40;;;;;;;;;;;;;;;;;;2141089;67;1132;-70
2021/07/15 02:45:07;;;;;;;;;;;;;;;;;;2140709;67;1226;-70
2021/07/15 02:47:32;;;;;;;;;;;;;;;;;;2140980;59;1281;-70
2021/07/15 02:49:57;;;;;;;;;;;;;;;;;;2140711;67;1323;-68
2021/07/15 02:52:22;;;;;;;;;;;;;;;;;;2140865;67;1254;-69
2021/07/15 02:54:48;;;;;;;;;;;;;;;;;;2141046;67;1139;-69
2021/07/15 02:57:31;;;;;;;;;;;;;;;;;;2140828;59;1278;-70
2021/07/15 03:00:00;;;;;;;;;;;;;;;;;;2140415;67;1936;-69
2021/07/15 03:02:29;;;;;;;;;;;;;;;;;;2139691;59;2599;-69
2021/07/15 03:05:00;;;;;;;;;;;;;;;;;;2140773;67;1260;-69
2021/07/15 03:07:27;;;;;;;;;;;;;;;;;;2141042;67;1254;-69
2021/07/15 03:09:54;;;;;;;;;;;;;;;;;;2140756;67;1352;-69
2021/07/15 03:12:21;;;;;;;;;;;;;;;;;;2140724;59;1431;-70
2021/07/15 03:14:47;;;;;;;;;;;;;;;;;;2140852;67;1198;-69
2021/07/15 03:17:17;;;;;;;;;;;;;;;;;;2140376;67;1415;-69
2021/07/15 03:19:48;;;;;;;;;;;;;;;;;;2140657;67;1937;-69
2021/07/15 03:22:13;;;;;;;;;;;;;;;;;;2140808;67;1143;-69
2021/07/15 03:24:45;;;;;;;;;;;;;;;;;;2139915;59;1875;-69
2021/07/15 03:27:11;;;;;;;;;;;;;;;;;;2140274;67;1271;-70
2021/07/15 03:29:36;;;;;;;;;;;;;;;;;;2140967;67;1564;-70
2021/07/15 03:32:04;;;;;;;;;;;;;;;;;;2140778;67;1203;-69
2021/07/15 03:34:29;;;;;;;;;;;;;;;;;;2141209;59;1346;-69
2021/07/15 03:36:54;;;;;;;;;;;;;;;;;;2140842;67;1127;-70
2021/07/15 03:39:20;;;;;;;;;;;;;;;;;;2140564;67;1924;-70
2021/07/15 03:41:45;;;;;;;;;;;;;;;;;;2140996;67;1604;-70
2021/07/15 03:44:11;;;;;;;;;;;;;;;;;;2140767;67;1053;-73
2021/07/15 03:46:36;;;;;;;;;;;;;;;;;;2141149;67;1151;-72
2021/07/15 03:49:03;;;;;;;;;;;;;;;;;;2140494;59;1357;-70
2021/07/15 03:51:28;;;;;;;;;;;;;;;;;;2141149;67;1012;-69
2021/07/15 03:53:54;;;;;;;;;;;;;;;;;;2139844;59;1989;-70
2021/07/15 03:56:20;;;;;;;;;;;;;;;;;;2140101;67;1236;-71
2021/07/15 03:58:46;;;;;;;;;;;;;;;;;;2140011;59;1991;-71
2021/07/15 04:01:12;;;;;;;;;;;;;;;;;;2140197;67;1239;-72
2021/07/15 04:03:39;;;;;;;;;;;;;;;;;;2140809;67;1483;-72
2021/07/15 04:06:05;;;;;;;;;;;;;;;;;;2140065;59;1177;-71
2021/07/15 04:08:31;;;;;;;;;;;;;;;;;;2140534;67;1198;-71
2021/07/15 04:11:00;;;;;;;;;;;;;;;;;;2140976;67;1254;-72
2021/07/15 04:13:26;;;;;;;;;;;;;;;;;;2140981;59;1310;-72
2021/07/15 04:15:51;;;;;;;;;;;;;;;;;;2140978;59;1233;-71
2021/07/15 04:18:17;;;;;;;;;;;;;;;;;;2140557;67;1149;-71
2021/07/15 04:20:43;;;;;;;;;;;;;;;;;;2140640;67;1978;-69
2021/07/15 04:23:09;;;;;;;;;;;;;;;;;;2140670;59;1455;-68
2021/07/15 04:25:35;;;;;;;;;;;;;;;;;;2139290;67;1152;-68
2021/07/15 04:28:01;;;;;;;;;;;;;;;;;;2140793;67;1278;-69
2021/07/15 04:30:27;;;;;;;;;;;;;;;;;;2140629;67;1183;-70
2021/07/15 04:32:58;;;;;;;;;;;;;;;;;;2141282;67;1159;-70
2021/07/15 04:35:24;;;;;;;;;;;;;;;;;;2140717;67;1135;-68
2021/07/15 04:37:50;;;;;;;;;;;;;;;;;;2141067;67;1171;-69
2021/07/15 04:40:17;;;;;;;;;;;;;;;;;;2140964;67;2017;-69
2021/07/15 04:42:43;;;;;;;;;;;;;;;;;;2140888;67;1164;-71
2021/07/15 04:45:12;;;;;;;;;;;;;;;;;;2140776;67;1198;-71
2021/07/15 04:47:42;;;;;;;;;;;;;;;;;;2139094;59;1298;-71
2021/07/15 04:50:13;;;;;;;;;;;;;;;;;;2140648;67;1146;-69
2021/07/15 04:52:39;;;;;;;;;;;;;;;;;;2139408;67;1117;-70
2021/07/15 04:55:06;;;;;;;;;;;;;;;;;;2140449;67;1225;-70
2021/07/15 04:57:33;;;;;;;;;;;;;;;;;;2140708;59;1227;-69
2021/07/15 04:59:59;;;;;;;;;;;;;;;;;;2140482;67;1919;-69
2021/07/15 05:02:24;;;;;;;;;;;;;;;;;;2140713;67;1278;-70
2021/07/15 05:04:49;;;;;;;;;;;;;;;;;;2140766;67;1331;-70
2021/07/15 05:07:14;;;;;;;;;;;;;;;;;;2140781;59;1176;-69
2021/07/15 05:09:39;;;;;;;;;;;;;;;;;;2140971;67;1083;-69
2021/07/15 05:12:05;;;;;;;;;;;;;;;;;;2140282;59;1346;-70
2021/07/15 05:14:31;;;;;;;;;;;;;;;;;;2140868;59;1247;-70
2021/07/15 05:16:58;;;;;;;;;;;;;;;;;;2139213;59;1488;-69
2021/07/15 05:19:23;;;;;;;;;;;;;;;;;;2141030;67;2063;-70
2021/07/15 05:21:49;;;;;;;;;;;;;;;;;;2140586;67;1231;-70
2021/07/15 05:24:14;;;;;;;;;;;;;;;;;;2138783;59;1307;-70
2021/07/15 05:26:39;;;;;;;;;;;;;;;;;;2140850;67;1286;-69
2021/07/15 05:29:04;;;;;;;;;;;;;;;;;;2140343;67;1146;-70
2021/07/15 05:31:29;;;;;;;;;;;;;;;;;;2140845;67;1140;-70
2021/07/15 05:33:54;;;;;;;;;;;;;;;;;;2140736;67;1171;-70
2021/07/15 05:36:20;;;;;;;;;;;;;;;;;;2140487;67;1171;-69
2021/07/15 05:38:45;;;;;;;;;;;;;;;;;;2140708;67;1982;-69
2021/07/15 05:41:10;;;;;;;;;;;;;;;;;;2140056;67;1176;-69
2021/07/15 05:43:35;;;;;;;;;;;;;;;;;;2140775;67;1230;-70
2021/07/15 05:46:01;;;;;;;;;;;;;;;;;;2140468;67;1167;-69
2021/07/15 05:48:26;;;;;;;;;;;;;;;;;;2140025;59;1354;-69
2021/07/15 05:50:52;;;;;;;;;;;;;;;;;;2140751;67;1525;-70
2021/07/15 05:53:17;;;;;;;;;;;;;;;;;;2139533;59;1751;-69
2021/07/15 05:55:42;;;;;;;;;;;;;;;;;;2140354;67;1134;-69
2021/07/15 05:58:08;;;;;;;;;;;;;;;;;;2139307;59;2005;-69
2021/07/15 06:00:34;;;;;;;;;;;;;;;;;;2139625;67;1917;-69
2021/07/15 06:02:59;;;;;;;;;;;;;;;;;;2140176;67;1285;-69
2021/07/15 06:05:25;;;;;;;;;;;;;;;;;;2140129;59;1679;-70
2021/07/15 06:07:52;;;;;;;;;;;;;;;;;;2138932;59;1818;-69
2021/07/15 06:10:17;;;;;;;;;;;;;;;;;;2137386;59;1977;-70
2021/07/15 06:12:42;;;;;;;;;;;;;;;;;;2137702;59;2031;-70
2021/07/15 06:15:08;;;;;;;;;;;;;;;;;;2138257;59;1844;-70
2021/07/15 06:17:35;;;;;;;;;;;;;;;;;;2139171;59;2008;-70
2021/07/15 06:20:00;;;;;;;;;;;;;;;;;;2139042;59;2006;-69
2021/07/15 06:22:25;;;;;;;;;;;;;;;;;;2139099;59;1888;-70
2021/07/15 06:24:50;;;;;;;;;;;;;;;;;;2140018;67;1206;-71
2021/07/15 06:27:15;;;;;;;;;;;;;;;;;;2140102;67;1321;-72
2021/07/15 06:29:41;;;;;;;;;;;;;;;;;;2139751;62;1293;-71
2021/07/15 06:32:06;;;;;;;;;;;;;;;;;;2140448;67;1247;-70
2021/07/15 06:34:31;;;;;;;;;;;;;;;;;;2139978;60;1935;-71
2021/07/15 06:36:56;;;;;;;;;;;;;;;;;;2139613;59;2143;-70
2021/07/15 06:39:22;;;;;;;;;;;;;;;;;;2137489;59;2000;-70
2021/07/15 06:41:47;;;;;;;;;;;;;;;;;;2140353;67;1265;-71
2021/07/15 06:44:13;;;;;;;;;;;;;;;;;;2140249;67;1335;-71
2021/07/15 06:46:39;;;;;;;;;;;;;;;;;;2140300;67;1225;-72
2021/07/15 06:49:04;;;;;;;;;;;;;;;;;;2139655;59;1272;-72
2021/07/15 06:51:29;;;;;;;;;;;;;;;;;;2140232;67;1068;-71
2021/07/15 06:53:54;;;;;;;;;;;;;;;;;;2140340;67;1149;-71
2021/07/15 06:56:20;;;;;;;;;;;;;;;;;;2140556;67;1116;-72
2021/07/15 06:58:45;;;;;;;;;;;;;;;;;;2140094;59;1936;-72
2021/07/15 07:01:11;;;;;;;;;;;;;;;;;;2140253;67;1098;-72
2021/07/15 07:03:36;;;;;;;;;;;;;;;;;;2140386;67;1561;-72
2021/07/15 07:06:02;;;;;;;;;;;;;;;;;;2140273;67;1191;-70
2021/07/15 07:08:27;;;;;;;;;;;;;;;;;;2140564;67;1206;-72
2021/07/15 07:10:52;;;;;;;;;;;;;;;;;;2138994;59;1860;-70
2021/07/15 07:13:17;;;;;;;;;;;;;;;;;;2137295;59;1992;-71
2021/07/15 07:15:42;;;;;;;;;;;;;;;;;;2138982;59;1806;-70
2021/07/15 07:18:08;;;;;;;;;;;;;;;;;;2138962;59;1851;-71
2021/07/15 07:20:33;;;;;;;;;;;;;;;;;;2139526;67;1979;-72
2021/07/15 07:22:58;;;;;;;;;;;;;;;;;;2137620;59;2416;-70
2021/07/15 07:25:23;;;;;;;;;;;;;;;;;;2139127;67;1279;-71
2021/07/15 07:27:49;;;;;;;;;;;;;;;;;;2138729;59;1658;-71
2021/07/15 07:30:15;;;;;;;;;;;;;;;;;;2137786;67;1010;-72
2021/07/15 07:32:41;;;;;;;;;;;;;;;;;;2139448;67;1063;-72
2021/07/15 07:35:07;;;;;;;;;;;;;;;;;;2139091;67;1300;-72
2021/07/15 07:37:33;;;;;;;;;;;;;;;;;;2140528;67;1266;-72
2021/07/15 07:39:58;;;;;;;;;;;;;;;;;;2140223;67;1983;-72
2021/07/15 07:42:24;;;;;;;;;;;;;;;;;;2140046;67;1218;-72
2021/07/15 07:44:49;;;;;;;;;;;;;;;;;;2140447;67;1812;-72
2021/07/15 07:47:15;;;;;;;;;;;;;;;;;;2139493;59;1230;-73
2021/07/15 07:49:40;;;;;;;;;;;;;;;;;;2140444;67;1469;-73
2021/07/15 07:52:06;;;;;;;;;;;;;;;;;;2140542;67;1148;-70
2021/07/15 07:54:31;;;;;;;;;;;;;;;;;;2140509;67;1152;-73
2021/07/15 07:56:57;;;;;;;;;;;;;;;;;;2140758;67;1179;-73
2021/07/15 07:59:22;;;;;;;;;;;;;;;;;;2140492;59;2195;-73
2021/07/15 08:01:47;;;;;;;;;;;;;;;;;;2140191;59;1611;-73
2021/07/15 08:04:13;;;;;;;;;;;;;;;;;;2138727;59;1916;-72
2021/07/15 08:06:38;;;;;;;;;;;;;;;;;;2138458;59;1179;-69
2021/07/15 08:09:08;;;;;;;;;;;;;;;;;;2139660;67;1274;-69
2021/07/15 08:11:33;;;;;;;;;;;;;;;;;;2138790;59;1793;-69
2021/07/15 08:13:59;;;;;;;;;;;;;;;;;;2139732;67;1332;-69
2021/07/15 08:16:24;;;;;;;;;;;;;;;;;;2140439;59;1356;-71
2021/07/15 08:18:49;;;;;;;;;;;;;;;;;;2139910;67;1936;-72
2021/07/15 08:21:18;;;;;;;;;;;;;;;;;;2138952;59;1772;-72
2021/07/15 08:23:44;;;;;;;;;;;;;;;;;;2138954;59;2490;-72
2021/07/15 08:26:10;;;;;;;;;;;;;;;;;;2138124;59;2377;-71
2021/07/15 08:28:35;;;;;;;;;;;;;;;;;;2140550;66;1490;-73
2021/07/15 08:31:00;;;;;;;;;;;;;;;;;;2140109;67;1140;-71
2021/07/15 08:33:25;;;;;;;;;;;;;;;;;;2139925;59;1134;-73
2021/07/15 08:35:51;;;;;;;;;;;;;;;;;;2140510;67;1116;-71
2021/07/15 08:38:16;;;;;;;;;;;;;;;;;;2139917;67;1238;-70
2021/07/15 08:40:43;;;;;;;;;;;;;;;;;;2140192;62;1919;-71
2021/07/15 08:43:10;;;;;;;;;;;;;;;;;;2139862;67;1183;-69
2021/07/15 08:45:35;;;;;;;;;;;;;;;;;;2140139;67;1175;-69
2021/07/15 08:48:01;;;;;;;;;;;;;;;;;;2139809;59;1325;-70
2021/07/15 08:50:28;;;;;;;;;;;;;;;;;;2140205;67;1429;-68
2021/07/15 08:52:53;;;;;;;;;;;;;;;;;;2140310;67;1292;-70
2021/07/15 08:56:36;;;;;;;;;;;;;;;;;;2139846;67;1143;-70
2021/07/15 08:58:06;;;;;;;;;;;;;;;;;;2139899;59;1705;-70
2021/07/15 09:00:31;;;;;;;;;;;;;;;;;;2140358;67;1976;-70
2021/07/15 09:02:57;;;;;;;;;;;;;;;;;;2139836;67;1284;-71
2021/07/15 09:05:22;;;;;;;;;;;;;;;;;;2139540;67;992;-69
2021/07/15 09:07:47;;;;;;;;;;;;;;;;;;2135283;66;1253;-70
2021/07/15 09:10:13;;;;;;;;;;;;;;;;;;2139538;67;1163;-72
2021/07/15 09:12:38;;;;;;;;;;;;;;;;;;2139413;59;1272;-72
2021/07/15 09:15:08;;;;;;;;;;;;;;;;;;2139142;59;1305;-70
2021/07/15 09:17:35;;;;;;;;;;;;;;;;;;2139636;67;1180;-70
2021/07/15 09:20:02;;;;;;;;;;;;;;;;;;2139893;67;1933;-72
2021/07/15 09:22:27;;;;;;;;;;;;;;;;;;2140025;59;1813;-73
2021/07/15 09:24:52;;;;;;;;;;;;;;;;;;2138456;59;2322;-72
2021/07/15 09:27:20;;;;;;;;;;;;;;;;;;2139294;67;1670;-72
2021/07/15 09:30:02;;;;;;;;;;;;;;;;;;2139514;59;1820;-72
2021/07/15 09:32:27;;;;;;;;;;;;;;;;;;2139172;67;1310;-71
2021/07/15 09:35:00;;;;;;;;;;;;;;;;;;2138996;59;1361;-72
2021/07/15 09:37:31;;;;;;;;;;;;;;;;;;2139004;67;1363;-72
2021/07/15 09:39:56;;;;;;;;;;;;;;;;;;2140102;67;1927;-70
2021/07/15 09:42:22;;;;;;;;;;;;;;;;;;2139519;67;1204;-71
2021/07/15 09:44:51;;;;;;;;;;;;;;;;;;2139889;67;1096;-70
2021/07/15 09:47:36;;;;;;;;;;;;;;;;;;2139495;59;1278;-70
2021/07/15 09:50:22;;;;;;;;;;;;;;;;;;2138768;67;1424;-70
2021/07/15 09:52:47;;;;;;;;;;;;;;;;;;2138573;67;1038;-70
2021/07/15 09:55:24;;;;;;;;;;;;;;;;;;2138957;67;1108;-71
2021/07/15 09:58:02;;;;;;;;;;;;;;;;;;2140140;59;1176;-69
2021/07/15 10:00:31;;;;;;;;;;;;;;;;;;2139623;67;1929;-69
2021/07/15 10:02:57;;;;;;;;;;;;;;;;;;2137696;59;1350;-71
2021/07/15 10:05:22;;;;;;;;;;;;;;;;;;2138356;67;1206;-68
2021/07/15 10:07:47;;;;;;;;;;;;;;;;;;2139059;59;1349;-70
2021/07/15 10:10:22;;;;;;;;;;;;;;;;;;2139273;59;1199;-69
2021/07/15 10:12:47;;;;;;;;;;;;;;;;;;2140096;59;1264;-70
2021/07/15 10:15:14;;;;;;;;;;;;;;;;;;2139571;59;1250;-69
2021/07/15 10:17:43;;;;;;;;;;;;;;;;;;2139245;67;1232;-68
2021/07/15 10:20:18;;;;;;;;;;;;;;;;;;2139388;59;1931;-69
2021/07/15 10:22:44;;;;;;;;;;;;;;;;;;2139536;59;1313;-69
2021/07/15 10:25:10;;;;;;;;;;;;;;;;;;2137266;67;2352;-69
2021/07/15 10:27:37;;;;;;;;;;;;;;;;;;2138032;59;2632;-69
2021/07/15 10:30:02;;;;;;;;;;;;;;;;;;2139171;67;1022;-69
2021/07/15 10:32:29;;;;;;;;;;;;;;;;;;2139126;67;1369;-71
2021/07/15 10:34:54;;;;;;;;;;;;;;;;;;2139776;67;1107;-68
2021/07/15 10:37:20;;;;;;;;;;;;;;;;;;2139090;67;1277;-68
2021/07/15 10:39:45;;;;;;;;;;;;;;;;;;2139923;67;1941;-70
2021/07/15 10:42:11;;;;;;;;;;;;;;;;;;2139806;67;1177;-70
2021/07/15 10:44:36;;;;;;;;;;;;;;;;;;2139773;67;1115;-69
2021/07/15 10:47:02;;;;;;;;;;;;;;;;;;2139129;67;1989;-66
2021/07/15 10:49:27;;;;;;;;;;;;;;;;;;2138622;59;1943;-68
2021/07/15 10:51:54;;;;;;;;;;;;;;;;;;2140268;67;1597;-69
2021/07/15 10:54:19;;;;;;;;;;;;;;;;;;2140155;67;2083;-69
2021/07/15 10:56:46;;;;;;;;;;;;;;;;;;2140609;67;951;-67
2021/07/15 10:59:20;;;;;;;;;;;;;;;;;;2139539;59;2118;-68
2021/07/15 11:01:46;;;;;;;;;;;;;;;;;;2139913;67;1402;-68
2021/07/15 11:04:21;;;;;;;;;;;;;;;;;;2140060;67;1366;-69
2021/07/15 11:06:51;;;;;;;;;;;;;;;;;;2139764;67;1290;-68
2021/07/15 11:09:22;;;;;;;;;;;;;;;;;;2140130;67;1245;-70
2021/07/15 11:11:47;;;;;;;;;;;;;;;;;;2139209;59;1258;-69
2021/07/15 11:14:31;;;;;;;;;;;;;;;;;;2139422;67;1156;-69
2021/07/15 11:16:57;;;;;;;;;;;;;;;;;;2139856;59;1497;-68
2021/07/15 11:19:52;;;;;;;;;;;;;;;;;;2139023;67;1960;-70
2021/07/15 11:22:35;;;;;;;;;;;;;;;;;;2135962;59;1423;-70
2021/07/15 11:25:03;;;;;;;;;;;;;;;;;;2139359;67;1870;-68
2021/07/15 11:27:28;;;;;;;;;;;;;;;;;;2137947;59;2233;-68
2021/07/15 11:29:54;;;;;;;;;;;;;;;;;;2139462;59;1884;-68
2021/07/15 11:32:26;;;;;;;;;;;;;;;;;;2138166;59;1843;-68
2021/07/15 11:34:54;;;;;;;;;;;;;;;;;;2138470;67;1727;-69
2021/07/15 11:37:25;;;;;;;;;;;;;;;;;;2139308;67;1188;-70
2021/07/15 11:39:50;;;;;;;;;;;;;;;;;;2139022;67;1927;-71
2021/07/15 11:42:19;;;;;;;;;;;;;;;;;;2140126;67;1115;-70
2021/07/15 11:44:57;;;;;;;;;;;;;;;;;;2139764;67;1171;-71
2021/07/15 11:47:41;;;;;;;;;;;;;;;;;;2139674;59;1917;-68
2021/07/15 11:50:06;;;;;;;;;;;;;;;;;;2139389;67;1173;-69
2021/07/15 11:52:31;;;;;;;;;;;;;;;;;;2139586;67;1280;-68
2021/07/15 11:54:56;;;;;;;;;;;;;;;;;;2140256;67;1029;-69
2021/07/15 11:57:23;;;;;;;;;;;;;;;;;;2139642;59;1207;-68
2021/07/15 11:59:52;;;;;;;;;;;;;;;;;;2139897;67;1938;-69
2021/07/15 12:02:29;;;;;;;;;;;;;;;;;;2139755;67;2207;-69
2021/07/15 12:05:07;;;;;;;;;;;;;;;;;;2139633;67;1428;-69
2021/07/15 12:07:33;;;;;;;;;;;;;;;;;;2139769;67;1511;-68
2021/07/15 12:09:58;;;;;;;;;;;;;;;;;;2140141;59;1172;-68
2021/07/15 12:12:23;;;;;;;;;;;;;;;;;;2140019;59;1303;-70
2021/07/15 12:14:52;;;;;;;;;;;;;;;;;;2140311;67;1057;-70
2021/07/15 12:17:18;;;;;;;;;;;;;;;;;;2139508;59;1595;-68
2021/07/15 12:19:53;;;;;;;;;;;;;;;;;;2140149;67;1924;-68
2021/07/15 12:22:18;;;;;;;;;;;;;;;;;;2139838;59;1995;-68
2021/07/15 12:24:45;;;;;;;;;;;;;;;;;;2139846;67;1344;-69
2021/07/15 12:27:10;;;;;;;;;;;;;;;;;;2138301;67;2369;-67
2021/07/15 12:29:52;;;;;;;;;;;;;;;;;;2138261;59;2616;-68
2021/07/15 12:32:17;;;;;;;;;;;;;;;;;;2139394;59;2045;-67
2021/07/15 12:34:42;;;;;;;;;;;;;;;;;;2139209;67;1861;-67
2021/07/15 12:37:11;;;;;;;;;;;;;;;;;;2139360;59;1682;-68
2021/07/15 12:39:37;;;;;;;;;;;;;;;;;;2140298;67;2029;-68
2021/07/15 12:42:02;;;;;;;;;;;;;;;;;;2140394;67;1156;-68
2021/07/15 12:44:27;;;;;;;;;;;;;;;;;;2139668;67;1301;-67
2021/07/15 12:46:53;;;;;;;;;;;;;;;;;;2140078;67;1314;-68
2021/07/15 12:49:22;;;;;;;;;;;;;;;;;;2138530;59;1847;-68
2021/07/15 12:51:49;;;;;;;;;;;;;;;;;;2140049;67;1600;-69
2021/07/15 12:54:20;;;;;;;;;;;;;;;;;;2139110;67;1554;-69
2021/07/15 12:56:45;;;;;;;;;;;;;;;;;;2139975;67;1886;-67
2021/07/15 12:59:11;;;;;;;;;;;;;;;;;;2138741;59;1927;-69
2021/07/15 13:01:37;;;;;;;;;;;;;;;;;;2139547;59;1675;-69
2021/07/15 13:04:04;;;;;;;;;;;;;;;;;;2139088;67;2262;-68
2021/07/15 13:06:30;;;;;;;;;;;;;;;;;;2139859;67;1989;-67
2021/07/15 13:09:04;;;;;;;;;;;;;;;;;;2139559;67;1267;-68
2021/07/15 13:14:16;;;;;;;;;;;;;;;;;;2139539;59;1152;-67
2021/07/15 13:16:49;;;;;;;;;;;;;;;;;;2139221;59;2607;-66
2021/07/15 13:19:15;;;;;;;;;;;;;;;;;;2133656;59;2744;-67
2021/07/15 13:21:40;;;;;;;;;;;;;;;;;;2137624;59;2209;-67
2021/07/15 13:24:09;;;;;;;;;;;;;;;;;;2136736;59;1917;-67
2021/07/15 13:26:56;;;;;;;;;;;;;;;;;;2139121;66;1112;-67
2021/07/15 13:29:21;;;;;;;;;;;;;;;;;;2133657;59;2246;-67
2021/07/15 13:31:47;;;;;;;;;;;;;;;;;;2137021;59;1789;-67
2021/07/15 13:34:12;;;;;;;;;;;;;;;;;;2139086;67;1163;-67
2021/07/15 13:36:48;;;;;;;;;;;;;;;;;;2139203;67;2004;-68
2021/07/15 13:39:32;;;;;;;;;;;;;;;;;;2136758;59;2235;-69
2021/07/15 13:41:57;;;;;;;;;;;;;;;;;;2139052;67;1229;-69
2021/07/15 13:44:22;;;;;;;;;;;;;;;;;;2139163;67;1522;-70
2021/07/15 13:46:59;;;;;;;;;;;;;;;;;;2138769;67;1235;-69
2021/07/15 13:49:24;;;;;;;;;;;;;;;;;;2138312;59;2003;-69
2021/07/15 13:51:49;;;;;;;;;;;;;;;;;;2139228;67;1388;-68
2021/07/15 13:54:14;;;;;;;;;;;;;;;;;;2139154;67;1166;-69
2021/07/15 13:56:40;;;;;;;;;;;;;;;;;;2139224;67;2029;-67
2021/07/15 13:59:05;;;;;;;;;;;;;;;;;;2138429;59;2282;-68
2021/07/15 14:01:30;;;;;;;;;;;;;;;;;;2139476;59;1387;-70
2021/07/15 14:03:55;;;;;;;;;;;;;;;;;;2139145;59;1249;-68
2021/07/15 14:06:21;;;;;;;;;;;;;;;;;;2139185;59;1193;-68
2021/07/15 14:08:56;;;;;;;;;;;;;;;;;;2139310;67;1230;-69
2021/07/15 14:11:21;;;;;;;;;;;;;;;;;;2138561;67;1364;-67
2021/07/15 14:13:47;;;;;;;;;;;;;;;;;;2138922;59;1653;-67
2021/07/15 14:16:12;;;;;;;;;;;;;;;;;;2139655;59;1374;-66
2021/07/15 14:18:37;;;;;;;;;;;;;;;;;;2139633;67;1306;-66
2021/07/15 14:21:05;;;;;;;;;;;;;;;;;;2138675;67;1989;-70
2021/07/15 14:23:31;;;;;;;;;;;;;;;;;;2139757;59;1437;-67
2021/07/15 14:26:02;;;;;;;;;;;;;;;;;;2139704;67;973;-64
2021/07/15 14:28:28;;;;;;;;;;;;;;;;;;2138643;59;2904;-68
2021/07/15 14:30:53;;;;;;;;;;;;;;;;;;2138614;59;2645;-66
2021/07/15 14:33:19;;;;;;;;;;;;;;;;;;2139538;59;1361;-66
2021/07/15 14:35:45;;;;;;;;;;;;;;;;;;2140011;67;1260;-68
2021/07/15 14:38:11;;;;;;;;;;;;;;;;;;2139521;67;1979;-69
2021/07/15 14:40:36;;;;;;;;;;;;;;;;;;2138292;67;2389;-70
2021/07/15 14:43:01;;;;;;;;;;;;;;;;;;2138681;66;1178;-74
2021/07/15 14:45:27;;;;;;;;;;;;;;;;;;2138399;67;1420;-70
2021/07/15 14:47:52;;;;;;;;;;;;;;;;;;2137897;59;1951;-71
2021/07/15 14:50:19;;;;;;;;;;;;;;;;;;2136514;59;1783;-73
2021/07/15 14:52:44;;;;;;;;;;;;;;;;;;2138173;67;1286;-71
2021/07/15 14:55:10;;;;;;;;;;;;;;;;;;2136450;67;2615;-69
2021/07/15 14:57:36;;;;;;;;;;;;;;;;;;2138868;59;2360;-69
2021/07/15 15:00:01;;;;;;;;;;;;;;;;;;2139536;67;1927;-72
2021/07/15 15:02:26;;;;;;;;;;;;;;;;;;2139038;67;1088;-69
2021/07/15 15:04:51;;;;;;;;;;;;;;;;;;2139626;67;1242;-70
2021/07/15 15:07:17;;;;;;;;;;;;;;;;;;2139523;67;1273;-70
2021/07/15 15:09:42;;;;;;;;;;;;;;;;;;2140366;67;1001;-72
2021/07/15 15:12:07;;;;;;;;;;;;;;;;;;2138405;59;1749;-69
2021/07/15 15:14:33;;;;;;;;;;;;;;;;;;2139596;67;1206;-72
2021/07/15 15:16:59;;;;;;;;;;;;;;;;;;2138733;59;1550;-72
2021/07/15 15:19:24;;;;;;;;;;;;;;;;;;2139002;59;1993;-70
2021/07/15 15:21:49;;;;;;;;;;;;;;;;;;2139747;67;1535;-71
2021/07/15 15:24:15;;;;;;;;;;;;;;;;;;2139823;59;1380;-74
2021/07/15 15:26:40;;;;;;;;;;;;;;;;;;2139777;67;1135;-71
2021/07/15 15:29:05;;;;;;;;;;;;;;;;;;2138385;67;2270;-73
2021/07/15 15:31:30;;;;;;;;;;;;;;;;;;2138071;59;2350;-70
2021/07/15 15:33:56;;;;;;;;;;;;;;;;;;2139575;59;2277;-71
2021/07/15 15:36:21;;;;;;;;;;;;;;;;;;2139733;67;1265;-71
2021/07/15 15:38:46;;;;;;;;;;;;;;;;;;2140387;67;1640;-70
2021/07/15 15:41:12;;;;;;;;;;;;;;;;;;2140031;67;1980;-70
2021/07/15 15:43:39;;;;;;;;;;;;;;;;;;2139804;67;1714;-69
2021/07/15 15:46:05;;;;;;;;;;;;;;;;;;2140082;67;1142;-70
2021/07/15 15:48:30;;;;;;;;;;;;;;;;;;2139657;59;1943;-70
2021/07/15 15:50:55;;;;;;;;;;;;;;;;;;2139101;59;1989;-70
2021/07/15 15:53:20;;;;;;;;;;;;;;;;;;2138458;67;1722;-69
2021/07/15 15:55:45;;;;;;;;;;;;;;;;;;2138891;67;1541;-70
2021/07/15 15:58:10;;;;;;;;;;;;;;;;;;2139273;59;1292;-70
2021/07/15 16:00:39;;;;;;;;;;;;;;;;;;2140007;67;1916;-70
2021/07/15 16:03:04;;;;;;;;;;;;;;;;;;2139579;66;1232;-73
2021/07/15 16:05:29;;;;;;;;;;;;;;;;;;2139692;59;1334;-71
2021/07/15 16:07:55;;;;;;;;;;;;;;;;;;2140563;67;1287;-71
2021/07/15 16:10:21;;;;;;;;;;;;;;;;;;2139859;67;1290;-70
2021/07/15 16:12:47;;;;;;;;;;;;;;;;;;2139576;59;1778;-71
2021/07/15 16:15:13;;;;;;;;;;;;;;;;;;2138696;59;1982;-72
2021/07/15 16:17:39;;;;;;;;;;;;;;;;;;2139458;67;1879;-71
2021/07/15 16:20:07;;;;;;;;;;;;;;;;;;2140264;67;1919;-72
2021/07/15 16:22:32;;;;;;;;;;;;;;;;;;2138140;59;1482;-70
2021/07/15 16:24:57;;;;;;;;;;;;;;;;;;2139940;59;1108;-70
2021/07/15 16:27:22;;;;;;;;;;;;;;;;;;2138689;59;1814;-69
2021/07/15 16:29:48;;;;;;;;;;;;;;;;;;2137819;59;1971;-73
2021/07/15 16:32:13;;;;;;;;;;;;;;;;;;2138327;66;2406;-70
2021/07/15 16:34:38;;;;;;;;;;;;;;;;;;2139101;59;1989;-70
2021/07/15 16:37:04;;;;;;;;;;;;;;;;;;2139181;59;2303;-71
2021/07/15 16:39:33;;;;;;;;;;;;;;;;;;2138882;67;2012;-72
2021/07/15 16:42:01;;;;;;;;;;;;;;;;;;2139967;67;1539;-71
2021/07/15 16:44:27;;;;;;;;;;;;;;;;;;2139940;67;1365;-70
2021/07/15 16:46:52;;;;;;;;;;;;;;;;;;2139303;59;1978;-70
2021/07/15 16:49:18;;;;;;;;;;;;;;;;;;2139099;59;1953;-71
2021/07/15 16:51:43;;;;;;;;;;;;;;;;;;2139546;67;1457;-68
2021/07/15 16:54:08;;;;;;;;;;;;;;;;;;2138978;67;1972;-69
2021/07/15 16:56:33;;;;;;;;;;;;;;;;;;2138896;59;2080;-66
2021/07/15 16:58:58;;;;;;;;;;;;;;;;;;2137391;59;2206;-67
2021/07/15 17:01:23;;;;;;;;;;;;;;;;;;2138862;67;2196;-67
2021/07/15 17:03:49;;;;;;;;;;;;;;;;;;2140034;67;1681;-69